createdAt,value
2022-07-30T00:00:54.072Z,14.80
2022-07-30T00:03:23.550Z,14.80
2022-07-30T00:05:53.034Z,14.90
2022-07-30T00:08:24.431Z,14.90
2022-07-30T00:10:54.496Z,14.90
2022-07-30T00:13:25.621Z,14.90
2022-07-30T00:15:55.744Z,14.80
2022-07-30T00:18:25.161Z,14.90
2022-07-30T00:20:54.725Z,14.80
2022-07-30T00:23:26.726Z,14.80
2022-07-30T00:25:56.165Z,14.70
2022-07-30T00:28:27.199Z,14.70
2022-07-30T00:30:57.243Z,14.60
2022-07-30T00:33:26.786Z,14.50
2022-07-30T00:35:56.370Z,14.60
2022-07-30T00:38:26.467Z,14.70
2022-07-30T00:40:55.937Z,14.70
2022-07-30T00:43:26.710Z,14.60
2022-07-30T00:45:56.438Z,14.50
2022-07-30T00:48:26.160Z,14.50
2022-07-30T00:50:55.833Z,14.50
2022-07-30T00:53:27.413Z,14.40
2022-07-30T00:55:57.007Z,14.40
2022-07-30T00:58:27.808Z,14.50
2022-07-30T01:00:57.935Z,14.60
2022-07-30T01:03:27.372Z,14.50
2022-07-30T01:05:56.846Z,14.60
2022-07-30T01:08:27.013Z,14.70
2022-07-30T01:10:56.517Z,14.70
2022-07-30T01:13:27.373Z,14.80
2022-07-30T01:15:58.442Z,14.70
2022-07-30T01:18:51.303Z,14.60
2022-07-30T01:21:30.394Z,14.60
2022-07-30T01:24:07.544Z,14.60
2022-07-30T01:26:39.622Z,14.60
2022-07-30T01:29:10.578Z,14.50
2022-07-30T01:31:41.337Z,14.60
2022-07-30T01:34:15.103Z,14.60
2022-07-30T01:36:48.701Z,14.50
2022-07-30T01:39:21.220Z,14.60
2022-07-30T01:41:54.588Z,14.50
2022-07-30T01:44:25.357Z,14.50
2022-07-30T01:46:57.404Z,14.50
2022-07-30T01:49:29.470Z,14.50
2022-07-30T01:52:00.257Z,14.50
2022-07-30T01:54:30.807Z,14.50
2022-07-30T01:57:04.034Z,14.40
2022-07-30T01:59:37.293Z,14.40
2022-07-30T02:02:07.004Z,14.40
2022-07-30T02:04:36.927Z,14.40
2022-07-30T02:07:12.566Z,14.40
2022-07-30T02:09:50.420Z,14.40
2022-07-30T02:12:30.685Z,14.40
2022-07-30T02:15:10.498Z,14.30
2022-07-30T02:17:44.960Z,14.20
2022-07-30T02:20:17.925Z,14.20
2022-07-30T02:22:50.457Z,14.10
2022-07-30T02:25:22.497Z,14.10
2022-07-30T02:27:57.727Z,14.10
2022-07-30T02:30:30.764Z,14.00
2022-07-30T02:33:04.228Z,14.00
2022-07-30T02:35:35.606Z,13.90
2022-07-30T02:38:05.872Z,13.90
2022-07-30T02:40:36.208Z,13.90
2022-07-30T02:43:07.209Z,13.80
2022-07-30T02:45:39.029Z,13.90
2022-07-30T02:48:10.953Z,13.90
2022-07-30T02:51:02.939Z,13.90
2022-07-30T02:53:34.334Z,13.90
2022-07-30T02:56:04.827Z,14.00
2022-07-30T02:58:38.366Z,14.00
2022-07-30T03:01:09.506Z,14.00
2022-07-30T03:03:42.018Z,14.10
2022-07-30T03:06:14.084Z,14.00
2022-07-30T03:08:44.755Z,13.90
2022-07-30T03:11:17.998Z,14.00
2022-07-30T03:13:49.378Z,13.90
2022-07-30T03:16:20.653Z,13.90
2022-07-30T03:18:51.451Z,13.80
2022-07-30T03:21:24.108Z,14.00
2022-07-30T03:23:55.038Z,13.90
2022-07-30T03:26:26.216Z,14.00
2022-07-30T03:28:57.774Z,13.90
2022-07-30T03:31:28.561Z,13.90
2022-07-30T03:34:07.213Z,14.00
2022-07-30T03:36:40.405Z,14.10
2022-07-30T03:39:10.957Z,14.20
2022-07-30T03:41:42.014Z,14.20
2022-07-30T03:44:13.293Z,14.30
2022-07-30T03:46:43.928Z,14.30
2022-07-30T03:49:14.128Z,14.50
2022-07-30T03:51:43.790Z,14.40
2022-07-30T03:54:14.178Z,14.40
2022-07-30T03:56:44.589Z,14.40
2022-07-30T03:59:17.393Z,14.50
2022-07-30T04:01:47.457Z,14.50
2022-07-30T04:04:17.286Z,14.70
2022-07-30T04:06:47.816Z,14.80
2022-07-30T04:09:18.053Z,14.90
2022-07-30T04:11:47.538Z,14.80
2022-07-30T04:14:18.537Z,14.90
2022-07-30T04:16:52.290Z,15.00
2022-07-30T04:19:26.739Z,15.00
2022-07-30T04:21:58.702Z,15.10
2022-07-30T04:24:28.805Z,15.20
2022-07-30T04:26:59.147Z,15.40
2022-07-30T04:29:30.357Z,15.50
2022-07-30T04:32:01.210Z,15.70
2022-07-30T04:34:30.768Z,15.90
2022-07-30T04:37:00.233Z,15.90
2022-07-30T04:39:30.885Z,16.10
2022-07-30T04:42:00.530Z,16.20
2022-07-30T04:44:31.546Z,16.40
2022-07-30T04:47:02.457Z,16.50
2022-07-30T04:49:33.260Z,16.70
2022-07-30T04:52:04.254Z,16.90
2022-07-30T04:54:40.527Z,17.10
2022-07-30T04:57:12.574Z,17.20
2022-07-30T04:59:43.714Z,17.30
2022-07-30T05:02:14.539Z,17.40
2022-07-30T05:04:44.505Z,17.50
2022-07-30T05:07:15.613Z,17.60
2022-07-30T05:09:45.120Z,17.60
2022-07-30T05:12:15.212Z,17.60
2022-07-30T05:14:48.282Z,17.70
2022-07-30T05:17:18.238Z,17.80
2022-07-30T05:19:47.747Z,17.80
2022-07-30T05:22:17.686Z,18.00
2022-07-30T05:24:47.720Z,18.00
2022-07-30T05:27:17.173Z,18.10
2022-07-30T05:29:48.381Z,18.30
2022-07-30T05:32:18.394Z,18.40
2022-07-30T05:34:48.896Z,18.50
2022-07-30T05:37:19.861Z,18.60
2022-07-30T05:40:02.883Z,18.60
2022-07-30T05:42:33.409Z,18.70
2022-07-30T05:45:04.321Z,18.80
2022-07-30T05:47:34.297Z,18.90
2022-07-30T05:50:05.247Z,19.00
2022-07-30T05:52:35.818Z,19.10
2022-07-30T05:55:05.210Z,19.10
2022-07-30T05:57:37.492Z,19.20
2022-07-30T06:00:10.854Z,19.20
2022-07-30T06:02:41.029Z,19.30
2022-07-30T06:05:11.265Z,19.30
2022-07-30T06:07:40.738Z,19.40
2022-07-30T06:10:10.568Z,19.40
2022-07-30T06:12:40.263Z,19.40
2022-07-30T06:15:12.388Z,19.40
2022-07-30T06:17:50.975Z,19.50
2022-07-30T06:20:29.149Z,19.50
2022-07-30T06:22:59.022Z,19.60
2022-07-30T06:25:28.365Z,19.60
2022-07-30T06:27:57.854Z,19.60
2022-07-30T06:30:31.319Z,19.70
2022-07-30T06:33:01.371Z,19.80
2022-07-30T06:35:32.917Z,19.90
2022-07-30T06:38:07.459Z,20.00
2022-07-30T06:40:38.007Z,19.90
2022-07-30T06:43:07.473Z,19.90
2022-07-30T06:45:38.340Z,20.10
2022-07-30T06:48:08.537Z,20.20
2022-07-30T06:50:38.401Z,20.40
2022-07-30T06:53:07.970Z,20.50
2022-07-30T06:55:38.019Z,20.50
2022-07-30T06:58:07.378Z,20.50
2022-07-30T07:00:38.216Z,20.70
2022-07-30T07:03:11.675Z,20.80
2022-07-30T07:05:41.314Z,21.00
2022-07-30T07:08:11.448Z,21.00
2022-07-30T07:10:41.019Z,20.90
2022-07-30T07:13:10.577Z,21.00
2022-07-30T07:15:41.773Z,21.00
2022-07-30T07:18:13.197Z,21.10
2022-07-30T07:20:43.917Z,21.10
2022-07-30T07:23:13.238Z,21.30
2022-07-30T07:25:43.219Z,21.30
2022-07-30T07:28:13.688Z,21.40
2022-07-30T07:30:44.921Z,21.30
2022-07-30T07:33:15.477Z,21.20
2022-07-30T07:35:49.629Z,21.40
2022-07-30T07:38:20.433Z,21.50
2022-07-30T07:40:49.885Z,21.50
2022-07-30T07:43:19.805Z,21.60
2022-07-30T07:45:51.025Z,21.50
2022-07-30T07:48:20.161Z,21.40
2022-07-30T07:50:50.214Z,21.40
2022-07-30T07:53:19.656Z,21.50
2022-07-30T07:55:49.064Z,21.60
2022-07-30T07:58:25.431Z,21.70
2022-07-30T08:00:57.382Z,21.80
2022-07-30T08:03:27.548Z,22.00
2022-07-30T08:06:05.810Z,22.10
2022-07-30T08:08:37.454Z,22.10
2022-07-30T08:11:07.858Z,22.30
2022-07-30T08:13:48.408Z,22.10
2022-07-30T08:16:24.006Z,22.00
2022-07-30T08:18:53.919Z,22.00
2022-07-30T08:21:23.404Z,21.80
2022-07-30T08:23:53.413Z,21.80
2022-07-30T08:26:23.486Z,21.70
2022-07-30T08:28:54.392Z,21.70
2022-07-30T08:31:25.954Z,21.60
2022-07-30T08:33:55.486Z,21.80
2022-07-30T08:36:26.054Z,21.90
2022-07-30T08:38:55.791Z,21.90
2022-07-30T08:41:26.937Z,22.00
2022-07-30T08:43:57.609Z,21.90
2022-07-30T08:46:32.469Z,21.90
2022-07-30T08:49:06.453Z,21.80
2022-07-30T08:51:39.226Z,21.80
2022-07-30T08:54:09.281Z,21.80
2022-07-30T08:56:39.495Z,21.90
2022-07-30T08:59:09.461Z,22.00
2022-07-30T09:01:41.048Z,22.00
2022-07-30T09:04:10.553Z,22.00
2022-07-30T09:06:41.296Z,22.10
2022-07-30T09:12:55.469Z,22.00
2022-07-30T09:15:25.972Z,22.10
2022-07-30T09:17:59.002Z,22.00
2022-07-30T09:20:30.792Z,22.00
2022-07-30T09:23:03.006Z,22.10
2022-07-30T09:25:41.192Z,22.10
2022-07-30T09:28:16.770Z,22.10
2022-07-30T09:30:49.792Z,22.10
2022-07-30T09:33:34.737Z,22.20
2022-07-30T09:36:07.801Z,22.30
2022-07-30T09:38:49.146Z,22.30
2022-07-30T09:41:38.255Z,22.30
2022-07-30T09:44:08.948Z,22.20
2022-07-30T09:46:48.276Z,22.20
2022-07-30T09:49:20.754Z,22.20
2022-07-30T09:52:06.455Z,22.40
2022-07-30T09:54:51.031Z,22.40
2022-07-30T10:00:24.035Z,22.30
2022-07-30T10:02:54.920Z,22.40
2022-07-30T10:05:26.373Z,22.40
2022-07-30T10:07:58.659Z,22.50
2022-07-30T10:10:29.829Z,22.50
2022-07-30T10:13:04.535Z,22.50
2022-07-30T10:15:36.409Z,22.80
2022-07-30T10:18:07.438Z,22.80
2022-07-30T10:20:39.670Z,22.90
2022-07-30T10:23:10.765Z,22.90
2022-07-30T10:25:49.091Z,22.90
2022-07-30T10:28:20.468Z,22.90
2022-07-30T10:30:52.239Z,23.00
2022-07-30T10:33:36.438Z,23.00
2022-07-30T10:36:13.274Z,23.10
2022-07-30T10:38:46.406Z,23.20
2022-07-30T10:41:42.802Z,23.20
2022-07-30T10:44:50.624Z,23.40
2022-07-30T10:47:23.692Z,23.50
2022-07-30T10:50:11.829Z,23.40
2022-07-30T10:52:58.757Z,23.50
2022-07-30T10:55:38.954Z,23.70
2022-07-30T10:58:11.022Z,24.00
2022-07-30T11:01:01.294Z,24.30
2022-07-30T11:03:41.409Z,25.10
2022-07-30T11:06:35.932Z,25.90
2022-07-30T11:09:40.861Z,26.40
2022-07-30T11:12:12.718Z,27.00
2022-07-30T11:15:07.848Z,27.50
2022-07-30T11:18:04.964Z,27.90
2022-07-30T11:20:43.272Z,28.00
2022-07-30T11:23:39.149Z,28.20
2022-07-30T11:26:14.395Z,27.90
2022-07-30T11:28:49.612Z,27.60
2022-07-30T11:31:55.061Z,27.60
2022-07-30T11:34:31.817Z,27.60
2022-07-30T11:37:18.640Z,27.70
2022-07-30T11:40:13.654Z,28.00
2022-07-30T11:42:45.262Z,27.90
2022-07-30T11:45:31.464Z,28.20
2022-07-30T11:48:04.725Z,28.50
2022-07-30T11:50:36.612Z,28.50
2022-07-30T11:53:07.825Z,28.40
2022-07-30T11:55:39.163Z,28.50
2022-07-30T11:58:12.002Z,28.70
2022-07-30T12:00:48.113Z,28.90
2022-07-30T12:03:19.851Z,29.00
2022-07-30T12:05:53.342Z,28.70
2022-07-30T12:08:36.006Z,28.50
2022-07-30T12:11:06.455Z,28.20
2022-07-30T12:13:44.500Z,28.50
2022-07-30T12:16:17.963Z,28.30
2022-07-30T12:18:48.612Z,28.30
2022-07-30T12:21:19.469Z,27.80
2022-07-30T12:23:57.544Z,27.90
2022-07-30T12:26:29.244Z,28.10
2022-07-30T12:29:05.121Z,28.40
2022-07-30T12:31:39.714Z,28.20
2022-07-30T12:34:22.341Z,28.00
2022-07-30T12:36:52.218Z,27.70
2022-07-30T12:39:23.434Z,27.30
2022-07-30T12:41:56.341Z,27.20
2022-07-30T12:44:42.721Z,27.20
2022-07-30T12:47:24.394Z,27.10
2022-07-30T12:49:54.465Z,26.80
2022-07-30T12:52:28.378Z,26.80
2022-07-30T12:55:01.026Z,26.90
2022-07-30T12:57:46.600Z,27.00
2022-07-30T13:00:18.226Z,26.60
2022-07-30T13:02:48.054Z,26.70
2022-07-30T13:05:17.798Z,26.70
2022-07-30T13:08:01.298Z,26.80
2022-07-30T13:10:31.850Z,26.70
2022-07-30T13:13:02.654Z,26.80
2022-07-30T13:15:34.214Z,26.60
2022-07-30T13:18:03.621Z,26.40
2022-07-30T13:20:33.214Z,26.10
2022-07-30T13:23:02.921Z,26.20
2022-07-30T13:25:38.928Z,26.00
2022-07-30T13:28:10.815Z,26.10
2022-07-30T13:30:43.226Z,26.00
2022-07-30T13:33:14.572Z,25.90
2022-07-30T13:35:44.142Z,25.90
2022-07-30T13:38:16.062Z,25.80
2022-07-30T13:40:45.479Z,26.10
2022-07-30T13:43:15.102Z,26.10
2022-07-30T13:45:46.020Z,26.00
2022-07-30T13:48:16.372Z,26.10
2022-07-30T13:50:46.103Z,25.80
2022-07-30T13:53:15.989Z,25.50
2022-07-30T13:55:46.932Z,25.50
2022-07-30T13:58:16.702Z,25.40
2022-07-30T14:00:48.553Z,25.20
2022-07-30T14:03:18.893Z,25.20
2022-07-30T14:05:48.487Z,25.30
2022-07-30T14:08:18.209Z,25.30
2022-07-30T14:10:48.297Z,25.40
2022-07-30T14:13:20.910Z,25.20
2022-07-30T14:15:53.385Z,25.00
2022-07-30T14:18:23.087Z,24.70
2022-07-30T14:20:54.042Z,24.60
2022-07-30T14:23:23.667Z,24.50
2022-07-30T14:25:52.995Z,24.40
2022-07-30T14:28:23.124Z,24.40
2022-07-30T14:30:54.086Z,24.40
2022-07-30T14:33:24.052Z,24.50
2022-07-30T14:35:53.520Z,24.50
2022-07-30T14:38:22.838Z,24.50
2022-07-30T14:40:56.040Z,24.30
2022-07-30T14:43:28.619Z,24.10
2022-07-30T14:46:00.325Z,24.30
2022-07-30T14:48:29.710Z,24.30
2022-07-30T14:51:14.750Z,24.30
2022-07-30T14:53:50.822Z,24.20
2022-07-30T14:56:22.720Z,24.20
2022-07-30T14:58:53.369Z,24.00
2022-07-30T15:01:25.646Z,23.90
2022-07-30T15:03:55.371Z,23.70
2022-07-30T15:06:25.461Z,23.60
2022-07-30T15:08:55.089Z,23.60
2022-07-30T15:11:24.694Z,23.50
2022-07-30T15:13:55.949Z,23.50
2022-07-30T15:16:27.389Z,23.30
2022-07-30T15:18:57.839Z,23.30
2022-07-30T15:21:27.465Z,23.20
2022-07-30T15:23:56.817Z,23.20
2022-07-30T15:26:26.742Z,22.90
2022-07-30T15:28:56.105Z,23.00
2022-07-30T15:31:27.560Z,23.00
2022-07-30T15:33:57.593Z,22.90
2022-07-30T15:36:27.117Z,23.00
2022-07-30T15:38:56.904Z,23.00
2022-07-30T15:41:26.644Z,23.00
2022-07-30T15:43:56.468Z,22.90
2022-07-30T15:46:27.529Z,22.80
2022-07-30T15:48:57.781Z,23.00
2022-07-30T15:51:28.097Z,22.90
2022-07-30T15:53:58.077Z,23.10
2022-07-30T15:56:30.354Z,23.10
2022-07-30T15:59:00.758Z,23.20
2022-07-30T16:01:31.627Z,23.00
2022-07-30T16:04:02.049Z,23.00
2022-07-30T16:06:31.773Z,23.00
2022-07-30T16:09:01.746Z,23.20
2022-07-30T16:11:32.553Z,23.30
2022-07-30T16:14:02.530Z,23.40
2022-07-30T16:16:33.679Z,23.40
2022-07-30T16:19:03.376Z,23.50
2022-07-30T16:21:33.112Z,23.40
2022-07-30T16:24:02.817Z,23.40
2022-07-30T16:26:32.818Z,23.40
2022-07-30T16:29:02.792Z,23.50
2022-07-30T16:31:34.236Z,23.30
2022-07-30T16:34:04.641Z,23.00
2022-07-30T16:36:34.540Z,22.80
2022-07-30T16:39:04.439Z,22.80
2022-07-30T16:41:34.861Z,22.70
2022-07-30T16:44:04.995Z,22.50
2022-07-30T16:46:38.283Z,22.40
2022-07-30T16:49:08.613Z,22.40
2022-07-30T16:51:38.898Z,22.50
2022-07-30T16:54:09.368Z,22.40
2022-07-30T16:56:39.629Z,22.40
2022-07-30T16:59:13.506Z,22.10
2022-07-30T17:01:45.773Z,22.00
2022-07-30T17:04:15.429Z,21.80
2022-07-30T17:06:45.165Z,21.60
2022-07-30T17:09:15.985Z,21.60
2022-07-30T17:11:52.347Z,21.50
2022-07-30T17:14:22.783Z,21.40
2022-07-30T17:16:54.231Z,21.30
2022-07-30T17:19:23.533Z,21.30
2022-07-30T17:21:53.888Z,21.30
2022-07-30T17:24:23.422Z,21.30
2022-07-30T17:26:53.193Z,21.30
2022-07-30T17:29:22.887Z,21.20
2022-07-30T17:31:55.558Z,21.20
2022-07-30T17:34:25.999Z,21.10
2022-07-30T17:36:55.467Z,21.10
2022-07-30T17:40:19.690Z,20.90
2022-07-30T17:42:15.273Z,20.80
2022-07-30T17:44:44.993Z,20.70
2022-07-30T17:47:16.451Z,20.60
2022-07-30T17:49:46.757Z,20.50
2022-07-30T17:52:16.397Z,20.40
2022-07-30T17:54:45.831Z,20.30
2022-07-30T17:57:17.122Z,20.20
2022-07-30T17:59:46.510Z,20.30
2022-07-30T18:02:17.661Z,20.20
2022-07-30T18:04:56.350Z,20.30
2022-07-30T18:07:26.326Z,20.30
2022-07-30T18:09:56.037Z,20.20
2022-07-30T18:12:25.428Z,20.10
2022-07-30T18:14:54.802Z,20.00
2022-07-30T18:17:26.425Z,19.90
2022-07-30T18:19:56.175Z,19.90
2022-07-30T18:22:29.292Z,19.80
2022-07-30T18:25:01.349Z,19.80
2022-07-30T18:27:31.523Z,19.70
2022-07-30T18:30:00.965Z,19.60
2022-07-30T18:32:32.062Z,19.60
2022-07-30T18:35:02.025Z,19.50
2022-07-30T18:37:41.321Z,19.50
2022-07-30T18:40:13.420Z,19.40
2022-07-30T18:42:43.133Z,19.40
2022-07-30T18:45:14.635Z,19.30
2022-07-30T18:47:47.493Z,19.20
2022-07-30T18:50:18.166Z,19.20
2022-07-30T18:52:47.697Z,19.10
2022-07-30T18:55:18.361Z,19.10
2022-07-30T18:57:52.112Z,19.10
2022-07-30T19:00:34.907Z,19.00
2022-07-30T19:03:09.985Z,18.90
2022-07-30T19:05:43.066Z,18.90
2022-07-30T19:08:13.147Z,19.00
2022-07-30T19:10:42.822Z,19.00
2022-07-30T19:13:12.695Z,18.90
2022-07-30T19:15:43.096Z,18.90
2022-07-30T19:18:14.186Z,18.90
2022-07-30T19:20:44.932Z,18.80
2022-07-30T19:23:16.721Z,18.80
2022-07-30T19:25:46.786Z,18.80
2022-07-30T19:28:18.082Z,18.80
2022-07-30T19:30:48.111Z,18.80
2022-07-30T19:33:18.950Z,18.80
2022-07-30T19:35:48.921Z,18.70
2022-07-30T19:38:21.858Z,18.70
2022-07-30T19:40:54.483Z,18.60
2022-07-30T19:43:24.565Z,18.70
2022-07-30T19:45:54.534Z,18.70
2022-07-30T19:48:31.747Z,18.60
2022-07-30T19:51:02.137Z,18.60
2022-07-30T19:53:34.838Z,18.70
2022-07-30T19:56:10.431Z,18.70
2022-07-30T19:58:41.063Z,18.70
2022-07-30T20:01:12.804Z,18.70
2022-07-30T20:03:46.207Z,18.70
2022-07-30T20:06:17.227Z,18.70
2022-07-30T20:08:49.868Z,18.70
2022-07-30T20:11:35.863Z,18.70
2022-07-30T20:14:06.528Z,18.70
2022-07-30T20:16:36.047Z,18.60
2022-07-30T20:19:08.220Z,18.70
2022-07-30T20:22:06.816Z,18.60
2022-07-30T20:24:29.485Z,18.60
2022-07-30T20:26:59.631Z,18.60
2022-07-30T20:29:29.317Z,18.50
2022-07-30T20:31:59.396Z,18.50
2022-07-30T20:34:31.329Z,18.60
2022-07-30T20:39:51.984Z,18.60
2022-07-30T20:42:24.635Z,18.60
2022-07-30T20:44:57.171Z,18.60
2022-07-30T20:47:37.489Z,18.60
2022-07-30T20:50:14.348Z,18.60
2022-07-30T20:52:46.782Z,18.60
2022-07-30T20:55:22.036Z,18.50
2022-07-30T20:58:00.449Z,18.60
2022-07-30T21:00:38.395Z,18.50
2022-07-30T21:03:13.649Z,18.40
2022-07-30T21:05:47.011Z,18.40
2022-07-30T21:08:16.422Z,18.40
2022-07-30T21:10:48.337Z,18.40
2022-07-30T21:13:18.786Z,18.50
2022-07-30T21:16:02.210Z,18.50
2022-07-30T21:18:33.402Z,18.40
2022-07-30T21:21:05.705Z,18.40
2022-07-30T21:23:35.807Z,18.50
2022-07-30T21:26:10.482Z,18.50
2022-07-30T21:28:43.044Z,18.50
2022-07-30T21:31:13.306Z,18.50
2022-07-30T21:33:43.765Z,18.40
2022-07-30T21:36:17.507Z,18.40
2022-07-30T21:38:54.673Z,18.40
2022-07-30T21:41:39.919Z,18.40
2022-07-30T21:44:10.500Z,18.40
2022-07-30T21:46:41.761Z,18.40
2022-07-30T21:49:11.527Z,18.40
2022-07-30T21:51:44.564Z,18.40
2022-07-30T21:54:17.111Z,18.40
2022-07-30T21:56:59.442Z,18.40
2022-07-30T21:59:29.371Z,18.40
2022-07-30T22:01:58.749Z,18.40
2022-07-30T22:04:28.837Z,18.40
2022-07-30T22:07:01.816Z,18.30
2022-07-30T22:09:33.057Z,18.40
2022-07-30T22:12:09.146Z,18.40
2022-07-30T22:14:40.087Z,18.40
2022-07-30T22:17:22.860Z,18.40
2022-07-30T22:19:54.756Z,18.40
2022-07-30T22:22:27.870Z,18.30
2022-07-30T22:30:38.700Z,18.40
2022-07-30T22:33:16.488Z,18.40
2022-07-30T22:35:49.559Z,18.30
2022-07-30T22:38:21.376Z,18.30
2022-07-30T22:40:52.487Z,18.30
2022-07-30T22:43:23.157Z,18.20
2022-07-30T22:46:03.318Z,18.20
2022-07-30T22:48:44.650Z,18.30
2022-07-30T22:51:14.718Z,18.20
2022-07-30T22:54:10.807Z,18.20
2022-07-30T22:56:35.995Z,18.20
2022-07-30T22:59:09.142Z,18.20
2022-07-30T23:01:43.298Z,18.20
2022-07-30T23:04:13.461Z,18.20
2022-07-30T23:06:45.053Z,18.10
2022-07-30T23:09:18.558Z,18.10
2022-07-30T23:11:49.955Z,18.10
2022-07-30T23:12:18.231Z,18.60
2022-07-30T23:12:28.740Z,18.30
2022-07-30T23:12:31.726Z,18.40
2022-07-30T23:14:21.306Z,18.10
2022-07-30T23:16:51.807Z,18.00
2022-07-30T23:19:22.050Z,18.10
2022-07-30T23:21:52.584Z,18.00
2022-07-30T23:24:23.526Z,18.00
2022-07-30T23:26:54.110Z,18.00
2022-07-30T23:29:23.508Z,18.00
2022-07-30T23:31:53.113Z,18.00
2022-07-30T23:34:23.478Z,18.00
2022-07-30T23:36:53.006Z,17.90
2022-07-30T23:39:24.049Z,17.90
2022-07-30T23:41:54.404Z,17.80
2022-07-30T23:44:23.748Z,17.80
2022-07-30T23:46:53.258Z,17.80
2022-07-30T23:49:24.846Z,17.80
2022-07-30T23:51:54.417Z,17.80
2022-07-30T23:54:25.869Z,17.80
2022-07-30T23:56:56.692Z,17.80
2022-07-30T23:59:40.335Z,17.90
